sensor_id;sensor_type;location;lat;lon;timestamp;P1;durP1;ratioP1;P2;durP2;ratioP2
63157;SDS011;49381;49.338;8.794;2023-01-05T00:00:38;1.70;;;0.60;;
63157;SDS011;49381;49.338;8.794;2023-01-05T00:02:53;1.42;;;0.90;;
63157;SDS011;49381;49.338;8.794;2023-01-05T00:04:56;1.65;;;0.60;;
63157;SDS011;49381;49.338;8.794;2023-01-05T00:07:03;2.67;;;0.63;;
63157;SDS011;49381;49.338;8.794;2023-01-05T00:09:04;2.40;;;0.70;;
63157;SDS011;49381;49.338;8.794;2023-01-05T00:11:20;1.15;;;0.65;;
63157;SDS011;49381;49.338;8.794;2023-01-05T00:13:21;1.95;;;0.60;;
63157;SDS011;49381;49.338;8.794;2023-01-05T00:15:26;1.98;;;0.70;;
63157;SDS011;49381;49.338;8.794;2023-01-05T00:17:27;1.27;;;0.60;;
63157;SDS011;49381;49.338;8.794;2023-01-05T00:19:27;0.88;;;0.68;;
63157;SDS011;49381;49.338;8.794;2023-01-05T00:21:28;0.70;;;0.50;;
63157;SDS011;49381;49.338;8.794;2023-01-05T00:23:29;1.55;;;0.70;;
63157;SDS011;49381;49.338;8.794;2023-01-05T00:25:32;1.83;;;0.70;;
63157;SDS011;49381;49.338;8.794;2023-01-05T00:27:39;0.88;;;0.43;;
63157;SDS011;49381;49.338;8.794;2023-01-05T00:29:42;0.88;;;0.50;;
63157;SDS011;49381;49.338;8.794;2023-01-05T00:31:42;0.50;;;0.40;;
63157;SDS011;49381;49.338;8.794;2023-01-05T00:33:43;1.10;;;0.52;;
63157;SDS011;49381;49.338;8.794;2023-01-05T00:35:50;1.38;;;0.90;;
63157;SDS011;49381;49.338;8.794;2023-01-05T00:37:52;1.60;;;0.80;;
63157;SDS011;49381;49.338;8.794;2023-01-05T00:39:56;1.50;;;0.60;;
63157;SDS011;49381;49.338;8.794;2023-01-05T00:42:01;1.50;;;0.88;;
63157;SDS011;49381;49.338;8.794;2023-01-05T00:44:06;1.80;;;0.85;;
63157;SDS011;49381;49.338;8.794;2023-01-05T00:46:08;3.15;;;1.25;;
63157;SDS011;49381;49.338;8.794;2023-01-05T00:48:11;1.85;;;0.75;;
63157;SDS011;49381;49.338;8.794;2023-01-05T00:50:16;2.03;;;0.63;;
63157;SDS011;49381;49.338;8.794;2023-01-05T00:52:18;3.08;;;0.88;;
63157;SDS011;49381;49.338;8.794;2023-01-05T00:54:19;1.85;;;0.68;;
63157;SDS011;49381;49.338;8.794;2023-01-05T00:56:20;1.40;;;0.50;;
63157;SDS011;49381;49.338;8.794;2023-01-05T00:58:21;1.30;;;0.88;;
63157;SDS011;49381;49.338;8.794;2023-01-05T01:00:26;1.02;;;0.50;;
63157;SDS011;49381;49.338;8.794;2023-01-05T01:02:32;2.38;;;0.63;;
63157;SDS011;49381;49.338;8.794;2023-01-05T01:04:35;0.93;;;0.43;;
63157;SDS011;49381;49.338;8.794;2023-01-05T01:06:38;2.78;;;0.70;;
63157;SDS011;49381;49.338;8.794;2023-01-05T01:08:39;1.98;;;0.77;;
63157;SDS011;49381;49.338;8.794;2023-01-05T01:10:41;1.58;;;0.80;;
63157;SDS011;49381;49.338;8.794;2023-01-05T01:12:52;1.40;;;0.65;;
63157;SDS011;49381;49.338;8.794;2023-01-05T01:14:53;1.58;;;0.60;;
63157;SDS011;49381;49.338;8.794;2023-01-05T01:16:56;1.50;;;0.90;;
63157;SDS011;49381;49.338;8.794;2023-01-05T01:18:58;5.03;;;1.00;;
63157;SDS011;49381;49.338;8.794;2023-01-05T01:20:59;3.60;;;0.82;;
63157;SDS011;49381;49.338;8.794;2023-01-05T01:23:06;1.65;;;0.60;;
63157;SDS011;49381;49.338;8.794;2023-01-05T01:25:07;0.50;;;0.50;;
63157;SDS011;49381;49.338;8.794;2023-01-05T01:27:13;2.13;;;0.80;;
63157;SDS011;49381;49.338;8.794;2023-01-05T01:29:16;3.22;;;0.80;;
63157;SDS011;49381;49.338;8.794;2023-01-05T01:31:26;0.80;;;0.70;;
63157;SDS011;49381;49.338;8.794;2023-01-05T01:33:37;3.45;;;0.77;;
63157;SDS011;49381;49.338;8.794;2023-01-05T01:35:40;1.00;;;0.70;;
63157;SDS011;49381;49.338;8.794;2023-01-05T01:37:44;1.27;;;0.98;;
63157;SDS011;49381;49.338;8.794;2023-01-05T01:39:47;1.98;;;1.10;;
63157;SDS011;49381;49.338;8.794;2023-01-05T01:41:50;1.00;;;0.60;;
63157;SDS011;49381;49.338;8.794;2023-01-05T01:43:59;1.30;;;0.80;;
63157;SDS011;49381;49.338;8.794;2023-01-05T01:46:26;1.98;;;0.60;;
63157;SDS011;49381;49.338;8.794;2023-01-05T01:50:30;1.50;;;0.73;;
63157;SDS011;49381;49.338;8.794;2023-01-05T01:52:32;1.48;;;0.70;;
63157;SDS011;49381;49.338;8.794;2023-01-05T01:54:35;3.47;;;0.63;;
63157;SDS011;49381;49.338;8.794;2023-01-05T01:56:40;1.55;;;0.88;;
63157;SDS011;49381;49.338;8.794;2023-01-05T01:58:47;2.30;;;0.68;;
63157;SDS011;49381;49.338;8.794;2023-01-05T02:00:50;1.77;;;0.80;;
63157;SDS011;49381;49.338;8.794;2023-01-05T02:02:52;1.20;;;0.80;;
63157;SDS011;49381;49.338;8.794;2023-01-05T02:04:58;1.50;;;0.70;;
63157;SDS011;49381;49.338;8.794;2023-01-05T02:07:03;0.85;;;0.70;;
63157;SDS011;49381;49.338;8.794;2023-01-05T02:09:10;1.27;;;1.02;;
63157;SDS011;49381;49.338;8.794;2023-01-05T02:11:16;0.75;;;0.43;;
63157;SDS011;49381;49.338;8.794;2023-01-05T02:13:39;0.65;;;0.50;;
63157;SDS011;49381;49.338;8.794;2023-01-05T02:15:49;3.03;;;1.30;;
63157;SDS011;49381;49.338;8.794;2023-01-05T02:18:00;1.17;;;0.70;;
63157;SDS011;49381;49.338;8.794;2023-01-05T02:20:30;1.00;;;0.70;;
63157;SDS011;49381;49.338;8.794;2023-01-05T02:22:45;1.35;;;0.73;;
63157;SDS011;49381;49.338;8.794;2023-01-05T02:25:11;1.00;;;0.68;;
63157;SDS011;49381;49.338;8.794;2023-01-05T02:30:08;1.40;;;0.90;;
63157;SDS011;49381;49.338;8.794;2023-01-05T02:32:37;1.30;;;0.70;;
63157;SDS011;49381;49.338;8.794;2023-01-05T02:34:46;1.50;;;0.65;;
63157;SDS011;49381;49.338;8.794;2023-01-05T02:37:03;1.27;;;1.05;;
63157;SDS011;49381;49.338;8.794;2023-01-05T02:39:28;0.88;;;0.70;;
63157;SDS011;49381;49.338;8.794;2023-01-05T02:41:36;1.85;;;0.50;;
63157;SDS011;49381;49.338;8.794;2023-01-05T02:43:47;1.67;;;0.80;;
63157;SDS011;49381;49.338;8.794;2023-01-05T02:45:50;2.30;;;0.70;;
63157;SDS011;49381;49.338;8.794;2023-01-05T02:48:01;2.58;;;0.90;;
63157;SDS011;49381;49.338;8.794;2023-01-05T02:50:06;2.25;;;0.98;;
63157;SDS011;49381;49.338;8.794;2023-01-05T02:52:32;1.27;;;0.80;;
63157;SDS011;49381;49.338;8.794;2023-01-05T02:54:42;2.75;;;0.90;;
63157;SDS011;49381;49.338;8.794;2023-01-05T02:57:09;1.20;;;0.60;;
63157;SDS011;49381;49.338;8.794;2023-01-05T02:59:32;1.02;;;0.63;;
63157;SDS011;49381;49.338;8.794;2023-01-05T03:01:38;1.95;;;0.60;;
63157;SDS011;49381;49.338;8.794;2023-01-05T03:03:43;0.95;;;0.55;;
63157;SDS011;49381;49.338;8.794;2023-01-05T03:05:51;1.45;;;0.70;;
63157;SDS011;49381;49.338;8.794;2023-01-05T03:08:08;0.95;;;0.60;;
63157;SDS011;49381;49.338;8.794;2023-01-05T03:10:12;1.13;;;0.50;;
63157;SDS011;49381;49.338;8.794;2023-01-05T03:12:14;0.63;;;0.43;;
63157;SDS011;49381;49.338;8.794;2023-01-05T03:14:24;0.88;;;0.52;;
63157;SDS011;49381;49.338;8.794;2023-01-05T03:16:31;1.33;;;0.30;;
63157;SDS011;49381;49.338;8.794;2023-01-05T03:18:38;1.02;;;0.60;;
63157;SDS011;49381;49.338;8.794;2023-01-05T03:20:43;0.52;;;0.40;;
63157;SDS011;49381;49.338;8.794;2023-01-05T03:22:52;1.33;;;0.45;;
63157;SDS011;49381;49.338;8.794;2023-01-05T03:24:57;0.98;;;0.50;;
63157;SDS011;49381;49.338;8.794;2023-01-05T03:27:00;0.82;;;0.40;;
63157;SDS011;49381;49.338;8.794;2023-01-05T03:29:00;0.82;;;0.45;;
63157;SDS011;49381;49.338;8.794;2023-01-05T03:31:03;0.43;;;0.35;;
63157;SDS011;49381;49.338;8.794;2023-01-05T03:33:09;0.60;;;0.40;;
63157;SDS011;49381;49.338;8.794;2023-01-05T03:35:22;1.38;;;0.50;;
63157;SDS011;49381;49.338;8.794;2023-01-05T03:37:30;0.70;;;0.60;;
63157;SDS011;49381;49.338;8.794;2023-01-05T03:39:47;0.70;;;0.50;;
63157;SDS011;49381;49.338;8.794;2023-01-05T03:41:49;0.40;;;0.40;;
63157;SDS011;49381;49.338;8.794;2023-01-05T03:43:50;0.55;;;0.43;;
63157;SDS011;49381;49.338;8.794;2023-01-05T03:45:52;2.00;;;0.30;;
63157;SDS011;49381;49.338;8.794;2023-01-05T03:48:01;1.00;;;0.40;;
63157;SDS011;49381;49.338;8.794;2023-01-05T03:50:12;0.75;;;0.30;;
63157;SDS011;49381;49.338;8.794;2023-01-05T03:52:26;1.13;;;0.40;;
63157;SDS011;49381;49.338;8.794;2023-01-05T03:54:47;0.68;;;0.38;;
63157;SDS011;49381;49.338;8.794;2023-01-05T03:56:54;0.52;;;0.47;;
63157;SDS011;49381;49.338;8.794;2023-01-05T03:59:00;0.68;;;0.40;;
63157;SDS011;49381;49.338;8.794;2023-01-05T04:01:19;0.22;;;0.20;;
63157;SDS011;49381;49.338;8.794;2023-01-05T04:03:21;1.00;;;0.43;;
63157;SDS011;49381;49.338;8.794;2023-01-05T04:05:43;0.68;;;0.50;;
63157;SDS011;49381;49.338;8.794;2023-01-05T04:07:46;0.60;;;0.47;;
63157;SDS011;49381;49.338;8.794;2023-01-05T04:10:15;1.08;;;0.50;;
63157;SDS011;49381;49.338;8.794;2023-01-05T04:12:22;1.10;;;0.70;;
63157;SDS011;49381;49.338;8.794;2023-01-05T04:14:26;0.77;;;0.45;;
63157;SDS011;49381;49.338;8.794;2023-01-05T04:16:29;3.17;;;0.85;;
63157;SDS011;49381;49.338;8.794;2023-01-05T04:18:32;2.55;;;0.70;;
63157;SDS011;49381;49.338;8.794;2023-01-05T04:20:35;5.20;;;1.83;;
63157;SDS011;49381;49.338;8.794;2023-01-05T04:22:38;16.52;;;6.40;;
63157;SDS011;49381;49.338;8.794;2023-01-05T04:26:59;1.63;;;0.85;;
63157;SDS011;49381;49.338;8.794;2023-01-05T04:29:00;1.42;;;0.60;;
63157;SDS011;49381;49.338;8.794;2023-01-05T04:31:03;1.42;;;0.47;;
63157;SDS011;49381;49.338;8.794;2023-01-05T04:33:04;0.50;;;0.50;;
63157;SDS011;49381;49.338;8.794;2023-01-05T04:35:05;2.25;;;0.60;;
63157;SDS011;49381;49.338;8.794;2023-01-05T04:37:05;1.20;;;0.60;;
63157;SDS011;49381;49.338;8.794;2023-01-05T04:39:06;0.65;;;0.35;;
63157;SDS011;49381;49.338;8.794;2023-01-05T04:41:13;1.40;;;0.50;;
63157;SDS011;49381;49.338;8.794;2023-01-05T04:43:14;1.20;;;0.60;;
63157;SDS011;49381;49.338;8.794;2023-01-05T04:45:15;2.17;;;0.50;;
63157;SDS011;49381;49.338;8.794;2023-01-05T04:47:16;2.85;;;0.65;;
63157;SDS011;49381;49.338;8.794;2023-01-05T04:49:18;1.42;;;0.80;;
63157;SDS011;49381;49.338;8.794;2023-01-05T04:51:19;1.95;;;0.80;;
63157;SDS011;49381;49.338;8.794;2023-01-05T04:53:25;0.82;;;0.65;;
63157;SDS011;49381;49.338;8.794;2023-01-05T04:55:27;1.45;;;0.60;;
63157;SDS011;49381;49.338;8.794;2023-01-05T04:57:36;2.22;;;0.60;;
63157;SDS011;49381;49.338;8.794;2023-01-05T04:59:48;2.05;;;0.80;;
63157;SDS011;49381;49.338;8.794;2023-01-05T05:01:51;2.08;;;0.80;;
63157;SDS011;49381;49.338;8.794;2023-01-05T05:03:52;4.13;;;0.90;;
63157;SDS011;49381;49.338;8.794;2023-01-05T05:05:53;2.78;;;0.90;;
63157;SDS011;49381;49.338;8.794;2023-01-05T05:07:55;1.80;;;0.70;;
63157;SDS011;49381;49.338;8.794;2023-01-05T05:09:57;6.57;;;1.08;;
63157;SDS011;49381;49.338;8.794;2023-01-05T05:12:01;4.95;;;0.88;;
63157;SDS011;49381;49.338;8.794;2023-01-05T05:14:10;8.40;;;1.45;;
63157;SDS011;49381;49.338;8.794;2023-01-05T05:16:12;9.48;;;1.85;;
63157;SDS011;49381;49.338;8.794;2023-01-05T05:18:15;9.63;;;1.50;;
63157;SDS011;49381;49.338;8.794;2023-01-05T05:20:16;14.80;;;1.60;;
63157;SDS011;49381;49.338;8.794;2023-01-05T05:22:21;11.27;;;1.83;;
63157;SDS011;49381;49.338;8.794;2023-01-05T05:24:23;10.15;;;2.42;;
63157;SDS011;49381;49.338;8.794;2023-01-05T05:26:32;9.25;;;1.95;;
63157;SDS011;49381;49.338;8.794;2023-01-05T05:28:32;8.13;;;1.88;;
63157;SDS011;49381;49.338;8.794;2023-01-05T05:30:36;11.93;;;1.70;;
63157;SDS011;49381;49.338;8.794;2023-01-05T05:32:46;11.70;;;1.77;;
63157;SDS011;49381;49.338;8.794;2023-01-05T05:34:48;8.50;;;1.38;;
63157;SDS011;49381;49.338;8.794;2023-01-05T05:36:51;11.90;;;1.80;;
63157;SDS011;49381;49.338;8.794;2023-01-05T05:38:56;12.50;;;2.05;;
63157;SDS011;49381;49.338;8.794;2023-01-05T05:40:59;17.33;;;2.28;;
63157;SDS011;49381;49.338;8.794;2023-01-05T05:43:04;13.23;;;2.28;;
63157;SDS011;49381;49.338;8.794;2023-01-05T05:45:10;9.05;;;1.38;;
63157;SDS011;49381;49.338;8.794;2023-01-05T05:49:16;12.48;;;2.10;;
63157;SDS011;49381;49.338;8.794;2023-01-05T05:51:18;10.93;;;1.80;;
63157;SDS011;49381;49.338;8.794;2023-01-05T05:53:29;8.88;;;1.60;;
63157;SDS011;49381;49.338;8.794;2023-01-05T05:55:36;10.52;;;2.13;;
63157;SDS011;49381;49.338;8.794;2023-01-05T05:57:43;12.05;;;2.03;;
63157;SDS011;49381;49.338;8.794;2023-01-05T06:00:04;10.43;;;1.63;;
63157;SDS011;49381;49.338;8.794;2023-01-05T06:02:12;9.43;;;1.83;;
63157;SDS011;49381;49.338;8.794;2023-01-05T06:04:38;10.80;;;1.77;;
63157;SDS011;49381;49.338;8.794;2023-01-05T06:06:50;9.05;;;1.88;;
63157;SDS011;49381;49.338;8.794;2023-01-05T06:09:12;6.28;;;1.45;;
63157;SDS011;49381;49.338;8.794;2023-01-05T06:11:28;9.73;;;1.85;;
63157;SDS011;49381;49.338;8.794;2023-01-05T06:13:30;7.97;;;2.03;;
63157;SDS011;49381;49.338;8.794;2023-01-05T06:15:41;7.63;;;1.77;;
63157;SDS011;49381;49.338;8.794;2023-01-05T06:17:46;8.80;;;2.00;;
63157;SDS011;49381;49.338;8.794;2023-01-05T06:20:00;11.75;;;1.95;;
63157;SDS011;49381;49.338;8.794;2023-01-05T06:22:07;14.75;;;2.05;;
63157;SDS011;49381;49.338;8.794;2023-01-05T06:24:13;7.07;;;1.67;;
63157;SDS011;49381;49.338;8.794;2023-01-05T06:26:17;13.05;;;1.85;;
63157;SDS011;49381;49.338;8.794;2023-01-05T06:28:33;14.43;;;1.80;;
63157;SDS011;49381;49.338;8.794;2023-01-05T06:30:45;10.02;;;1.77;;
63157;SDS011;49381;49.338;8.794;2023-01-05T06:32:54;13.48;;;2.03;;
63157;SDS011;49381;49.338;8.794;2023-01-05T06:35:06;12.02;;;1.92;;
63157;SDS011;49381;49.338;8.794;2023-01-05T06:37:12;9.13;;;1.55;;
63157;SDS011;49381;49.338;8.794;2023-01-05T06:39:21;8.30;;;1.70;;
63157;SDS011;49381;49.338;8.794;2023-01-05T06:41:27;6.97;;;1.63;;
63157;SDS011;49381;49.338;8.794;2023-01-05T06:45:35;13.82;;;2.85;;
63157;SDS011;49381;49.338;8.794;2023-01-05T06:47:39;15.95;;;2.13;;
63157;SDS011;49381;49.338;8.794;2023-01-05T06:49:50;11.07;;;2.05;;
63157;SDS011;49381;49.338;8.794;2023-01-05T06:51:56;12.05;;;2.05;;
63157;SDS011;49381;49.338;8.794;2023-01-05T06:54:04;12.05;;;1.98;;
63157;SDS011;49381;49.338;8.794;2023-01-05T06:56:13;11.65;;;2.20;;
63157;SDS011;49381;49.338;8.794;2023-01-05T07:00:35;9.85;;;1.83;;
63157;SDS011;49381;49.338;8.794;2023-01-05T07:02:43;12.88;;;2.50;;
63157;SDS011;49381;49.338;8.794;2023-01-05T07:05:04;13.15;;;1.70;;
63157;SDS011;49381;49.338;8.794;2023-01-05T07:07:12;11.45;;;2.50;;
63157;SDS011;49381;49.338;8.794;2023-01-05T07:09:15;11.55;;;1.48;;
63157;SDS011;49381;49.338;8.794;2023-01-05T07:11:21;8.52;;;2.17;;
63157;SDS011;49381;49.338;8.794;2023-01-05T07:13:25;10.93;;;1.58;;
63157;SDS011;49381;49.338;8.794;2023-01-05T07:15:30;10.57;;;1.95;;
63157;SDS011;49381;49.338;8.794;2023-01-05T07:17:32;13.60;;;2.10;;
63157;SDS011;49381;49.338;8.794;2023-01-05T07:19:47;11.68;;;1.95;;
63157;SDS011;49381;49.338;8.794;2023-01-05T07:21:58;11.68;;;2.10;;
63157;SDS011;49381;49.338;8.794;2023-01-05T07:24:25;12.27;;;2.30;;
63157;SDS011;49381;49.338;8.794;2023-01-05T07:26:31;12.23;;;2.47;;
63157;SDS011;49381;49.338;8.794;2023-01-05T07:28:37;13.60;;;3.30;;
63157;SDS011;49381;49.338;8.794;2023-01-05T07:30:41;13.95;;;3.35;;
63157;SDS011;49381;49.338;8.794;2023-01-05T07:32:51;15.77;;;4.60;;
63157;SDS011;49381;49.338;8.794;2023-01-05T07:34:59;11.82;;;2.97;;
63157;SDS011;49381;49.338;8.794;2023-01-05T07:37:04;12.57;;;2.40;;
63157;SDS011;49381;49.338;8.794;2023-01-05T07:39:07;8.20;;;1.55;;
63157;SDS011;49381;49.338;8.794;2023-01-05T07:41:08;19.60;;;2.28;;
63157;SDS011;49381;49.338;8.794;2023-01-05T07:43:20;11.93;;;2.03;;
63157;SDS011;49381;49.338;8.794;2023-01-05T07:45:26;12.02;;;2.10;;
63157;SDS011;49381;49.338;8.794;2023-01-05T07:47:28;10.77;;;2.25;;
63157;SDS011;49381;49.338;8.794;2023-01-05T07:49:31;13.27;;;2.25;;
63157;SDS011;49381;49.338;8.794;2023-01-05T07:51:41;10.50;;;1.85;;
63157;SDS011;49381;49.338;8.794;2023-01-05T07:53:44;12.98;;;2.10;;
63157;SDS011;49381;49.338;8.794;2023-01-05T07:55:55;9.73;;;2.58;;
63157;SDS011;49381;49.338;8.794;2023-01-05T07:57:58;11.07;;;1.98;;
63157;SDS011;49381;49.338;8.794;2023-01-05T08:00:04;9.27;;;1.75;;
63157;SDS011;49381;49.338;8.794;2023-01-05T08:02:16;8.13;;;1.90;;
63157;SDS011;49381;49.338;8.794;2023-01-05T08:04:18;14.75;;;2.30;;
63157;SDS011;49381;49.338;8.794;2023-01-05T08:06:23;15.82;;;2.25;;
63157;SDS011;49381;49.338;8.794;2023-01-05T08:08:26;9.57;;;1.25;;
63157;SDS011;49381;49.338;8.794;2023-01-05T08:10:30;8.93;;;1.40;;
63157;SDS011;49381;49.338;8.794;2023-01-05T08:12:31;11.25;;;2.58;;
63157;SDS011;49381;49.338;8.794;2023-01-05T08:14:35;9.88;;;1.75;;
63157;SDS011;49381;49.338;8.794;2023-01-05T08:16:38;9.98;;;2.25;;
63157;SDS011;49381;49.338;8.794;2023-01-05T08:18:43;9.85;;;1.80;;
63157;SDS011;49381;49.338;8.794;2023-01-05T08:20:50;7.63;;;1.38;;
63157;SDS011;49381;49.338;8.794;2023-01-05T08:23:02;10.38;;;1.58;;
63157;SDS011;49381;49.338;8.794;2023-01-05T08:25:26;14.20;;;2.08;;
63157;SDS011;49381;49.338;8.794;2023-01-05T08:27:35;11.68;;;2.38;;
63157;SDS011;49381;49.338;8.794;2023-01-05T08:29:40;11.77;;;2.00;;
63157;SDS011;49381;49.338;8.794;2023-01-05T08:31:50;13.32;;;1.88;;
63157;SDS011;49381;49.338;8.794;2023-01-05T08:33:55;8.80;;;2.05;;
63157;SDS011;49381;49.338;8.794;2023-01-05T08:36:29;12.35;;;2.10;;
63157;SDS011;49381;49.338;8.794;2023-01-05T08:38:31;6.68;;;1.60;;
63157;SDS011;49381;49.338;8.794;2023-01-05T08:40:42;8.35;;;1.67;;
63157;SDS011;49381;49.338;8.794;2023-01-05T08:42:51;8.20;;;1.80;;
63157;SDS011;49381;49.338;8.794;2023-01-05T08:44:55;7.60;;;1.63;;
63157;SDS011;49381;49.338;8.794;2023-01-05T08:47:09;10.80;;;1.98;;
63157;SDS011;49381;49.338;8.794;2023-01-05T08:49:24;11.75;;;2.35;;
63157;SDS011;49381;49.338;8.794;2023-01-05T08:51:28;11.05;;;2.25;;
63157;SDS011;49381;49.338;8.794;2023-01-05T08:53:31;10.65;;;2.15;;
63157;SDS011;49381;49.338;8.794;2023-01-05T08:55:34;14.48;;;1.80;;
63157;SDS011;49381;49.338;8.794;2023-01-05T08:57:40;8.43;;;1.67;;
63157;SDS011;49381;49.338;8.794;2023-01-05T08:59:44;11.10;;;2.17;;
63157;SDS011;49381;49.338;8.794;2023-01-05T09:01:47;15.80;;;2.15;;
63157;SDS011;49381;49.338;8.794;2023-01-05T09:03:54;9.77;;;1.88;;
63157;SDS011;49381;49.338;8.794;2023-01-05T09:05:55;15.65;;;2.22;;
63157;SDS011;49381;49.338;8.794;2023-01-05T09:08:10;8.35;;;2.08;;
63157;SDS011;49381;49.338;8.794;2023-01-05T09:10:16;10.23;;;1.80;;
63157;SDS011;49381;49.338;8.794;2023-01-05T09:12:16;13.73;;;2.38;;
63157;SDS011;49381;49.338;8.794;2023-01-05T09:14:18;12.57;;;2.20;;
63157;SDS011;49381;49.338;8.794;2023-01-05T09:16:20;12.80;;;2.60;;
63157;SDS011;49381;49.338;8.794;2023-01-05T09:18:21;11.77;;;2.45;;
63157;SDS011;49381;49.338;8.794;2023-01-05T09:20:22;14.60;;;2.60;;
63157;SDS011;49381;49.338;8.794;2023-01-05T09:22:22;9.52;;;2.00;;
63157;SDS011;49381;49.338;8.794;2023-01-05T09:24:23;13.40;;;3.22;;
63157;SDS011;49381;49.338;8.794;2023-01-05T09:26:24;13.38;;;2.45;;
63157;SDS011;49381;49.338;8.794;2023-01-05T09:28:24;10.70;;;2.47;;
63157;SDS011;49381;49.338;8.794;2023-01-05T09:30:27;8.75;;;2.50;;
63157;SDS011;49381;49.338;8.794;2023-01-05T09:32:29;11.60;;;2.75;;
63157;SDS011;49381;49.338;8.794;2023-01-05T09:34:30;14.90;;;3.25;;
63157;SDS011;49381;49.338;8.794;2023-01-05T09:36:30;9.10;;;2.42;;
63157;SDS011;49381;49.338;8.794;2023-01-05T09:38:33;14.10;;;2.92;;
63157;SDS011;49381;49.338;8.794;2023-01-05T09:40:41;13.85;;;2.70;;
63157;SDS011;49381;49.338;8.794;2023-01-05T09:42:42;10.55;;;2.53;;
63157;SDS011;49381;49.338;8.794;2023-01-05T09:44:48;12.95;;;3.38;;
63157;SDS011;49381;49.338;8.794;2023-01-05T09:46:58;10.93;;;2.22;;
63157;SDS011;49381;49.338;8.794;2023-01-05T09:49:03;9.95;;;2.17;;
63157;SDS011;49381;49.338;8.794;2023-01-05T09:51:06;8.07;;;2.20;;
63157;SDS011;49381;49.338;8.794;2023-01-05T09:53:11;11.10;;;2.10;;
63157;SDS011;49381;49.338;8.794;2023-01-05T09:55:15;10.00;;;2.20;;
63157;SDS011;49381;49.338;8.794;2023-01-05T09:57:18;11.77;;;2.08;;
63157;SDS011;49381;49.338;8.794;2023-01-05T09:59:22;12.68;;;1.70;;
63157;SDS011;49381;49.338;8.794;2023-01-05T10:01:42;11.48;;;2.30;;
63157;SDS011;49381;49.338;8.794;2023-01-05T10:03:50;11.65;;;1.83;;
63157;SDS011;49381;49.338;8.794;2023-01-05T10:05:58;8.68;;;1.85;;
63157;SDS011;49381;49.338;8.794;2023-01-05T10:07:59;11.68;;;2.67;;
63157;SDS011;49381;49.338;8.794;2023-01-05T10:10:11;14.57;;;2.20;;
63157;SDS011;49381;49.338;8.794;2023-01-05T10:12:43;10.02;;;2.40;;
63157;SDS011;49381;49.338;8.794;2023-01-05T10:14:49;7.47;;;1.77;;
63157;SDS011;49381;49.338;8.794;2023-01-05T10:16:56;12.32;;;2.05;;
63157;SDS011;49381;49.338;8.794;2023-01-05T10:18:59;14.35;;;2.40;;
63157;SDS011;49381;49.338;8.794;2023-01-05T10:21:02;11.07;;;2.25;;
63157;SDS011;49381;49.338;8.794;2023-01-05T10:23:31;13.38;;;2.67;;
63157;SDS011;49381;49.338;8.794;2023-01-05T10:26:00;8.50;;;2.03;;
63157;SDS011;49381;49.338;8.794;2023-01-05T10:28:14;11.45;;;2.28;;
63157;SDS011;49381;49.338;8.794;2023-01-05T10:30:31;11.45;;;1.75;;
63157;SDS011;49381;49.338;8.794;2023-01-05T10:32:47;6.53;;;1.88;;
63157;SDS011;49381;49.338;8.794;2023-01-05T10:34:56;10.73;;;2.00;;
63157;SDS011;49381;49.338;8.794;2023-01-05T10:37:07;12.27;;;2.50;;
63157;SDS011;49381;49.338;8.794;2023-01-05T10:39:34;12.60;;;1.88;;
63157;SDS011;49381;49.338;8.794;2023-01-05T10:41:49;13.13;;;2.17;;
63157;SDS011;49381;49.338;8.794;2023-01-05T10:46:45;12.20;;;3.05;;
63157;SDS011;49381;49.338;8.794;2023-01-05T10:48:47;12.38;;;3.35;;
63157;SDS011;49381;49.338;8.794;2023-01-05T10:50:50;15.60;;;2.50;;
63157;SDS011;49381;49.338;8.794;2023-01-05T10:53:02;11.40;;;2.55;;
63157;SDS011;49381;49.338;8.794;2023-01-05T10:55:12;12.27;;;2.33;;
63157;SDS011;49381;49.338;8.794;2023-01-05T10:57:33;16.08;;;2.65;;
63157;SDS011;49381;49.338;8.794;2023-01-05T10:59:49;18.30;;;2.53;;
63157;SDS011;49381;49.338;8.794;2023-01-05T11:01:55;15.10;;;3.00;;
63157;SDS011;49381;49.338;8.794;2023-01-05T11:04:03;17.25;;;2.97;;
63157;SDS011;49381;49.338;8.794;2023-01-05T11:06:18;12.70;;;2.25;;
63157;SDS011;49381;49.338;8.794;2023-01-05T11:08:21;14.65;;;2.10;;
63157;SDS011;49381;49.338;8.794;2023-01-05T11:10:27;10.82;;;2.50;;
63157;SDS011;49381;49.338;8.794;2023-01-05T11:12:29;15.57;;;3.25;;
63157;SDS011;49381;49.338;8.794;2023-01-05T11:14:35;12.52;;;2.80;;
63157;SDS011;49381;49.338;8.794;2023-01-05T11:16:46;13.70;;;2.45;;
63157;SDS011;49381;49.338;8.794;2023-01-05T11:18:49;12.18;;;2.55;;
63157;SDS011;49381;49.338;8.794;2023-01-05T11:21:04;11.10;;;2.88;;
63157;SDS011;49381;49.338;8.794;2023-01-05T11:23:10;16.10;;;3.10;;
63157;SDS011;49381;49.338;8.794;2023-01-05T11:25:38;17.13;;;3.95;;
63157;SDS011;49381;49.338;8.794;2023-01-05T11:28:05;12.18;;;2.38;;
63157;SDS011;49381;49.338;8.794;2023-01-05T11:30:26;13.15;;;2.85;;
63157;SDS011;49381;49.338;8.794;2023-01-05T11:32:41;11.15;;;2.78;;
63157;SDS011;49381;49.338;8.794;2023-01-05T11:36:54;13.93;;;2.35;;
63157;SDS011;49381;49.338;8.794;2023-01-05T11:39:02;12.48;;;2.53;;
63157;SDS011;49381;49.338;8.794;2023-01-05T11:43:10;13.85;;;2.90;;
63157;SDS011;49381;49.338;8.794;2023-01-05T11:47:53;10.55;;;2.80;;
63157;SDS011;49381;49.338;8.794;2023-01-05T11:50:13;12.27;;;2.17;;
63157;SDS011;49381;49.338;8.794;2023-01-05T11:52:25;13.82;;;2.17;;
63157;SDS011;49381;49.338;8.794;2023-01-05T11:54:34;9.85;;;2.08;;
63157;SDS011;49381;49.338;8.794;2023-01-05T11:56:43;12.27;;;2.70;;
63157;SDS011;49381;49.338;8.794;2023-01-05T11:58:49;12.35;;;2.42;;
63157;SDS011;49381;49.338;8.794;2023-01-05T12:01:09;13.25;;;2.95;;
63157;SDS011;49381;49.338;8.794;2023-01-05T12:04:01;13.57;;;3.25;;
63157;SDS011;49381;49.338;8.794;2023-01-05T12:06:03;12.68;;;2.97;;
63157;SDS011;49381;49.338;8.794;2023-01-05T12:08:26;10.35;;;2.65;;
63157;SDS011;49381;49.338;8.794;2023-01-05T12:10:59;12.85;;;2.55;;
63157;SDS011;49381;49.338;8.794;2023-01-05T12:13:19;14.63;;;2.42;;
63157;SDS011;49381;49.338;8.794;2023-01-05T12:16:10;12.40;;;2.20;;
63157;SDS011;49381;49.338;8.794;2023-01-05T12:20:40;10.63;;;2.25;;
63157;SDS011;49381;49.338;8.794;2023-01-05T12:25:28;13.25;;;2.00;;
63157;SDS011;49381;49.338;8.794;2023-01-05T12:27:47;12.18;;;3.55;;
63157;SDS011;49381;49.338;8.794;2023-01-05T12:30:10;10.73;;;2.35;;
63157;SDS011;49381;49.338;8.794;2023-01-05T12:33:01;16.50;;;2.78;;
63157;SDS011;49381;49.338;8.794;2023-01-05T12:37:53;10.60;;;2.88;;
63157;SDS011;49381;49.338;8.794;2023-01-05T12:40:27;13.00;;;2.92;;
63157;SDS011;49381;49.338;8.794;2023-01-05T12:42:39;17.13;;;4.15;;
63157;SDS011;49381;49.338;8.794;2023-01-05T12:44:58;11.13;;;2.70;;
63157;SDS011;49381;49.338;8.794;2023-01-05T12:47:28;12.50;;;3.03;;
63157;SDS011;49381;49.338;8.794;2023-01-05T12:49:41;14.63;;;3.38;;
63157;SDS011;49381;49.338;8.794;2023-01-05T12:51:46;11.75;;;2.63;;
63157;SDS011;49381;49.338;8.794;2023-01-05T12:59:16;15.75;;;2.75;;
63157;SDS011;49381;49.338;8.794;2023-01-05T13:01:25;15.57;;;3.05;;
63157;SDS011;49381;49.338;8.794;2023-01-05T13:03:33;15.02;;;2.63;;
63157;SDS011;49381;49.338;8.794;2023-01-05T13:05:40;13.80;;;2.67;;
63157;SDS011;49381;49.338;8.794;2023-01-05T13:07:45;12.98;;;2.20;;
63157;SDS011;49381;49.338;8.794;2023-01-05T13:09:51;17.38;;;2.80;;
63157;SDS011;49381;49.338;8.794;2023-01-05T13:11:57;15.00;;;2.55;;
63157;SDS011;49381;49.338;8.794;2023-01-05T13:14:14;14.02;;;3.20;;
63157;SDS011;49381;49.338;8.794;2023-01-05T13:16:31;13.57;;;2.60;;
63157;SDS011;49381;49.338;8.794;2023-01-05T13:18:54;13.40;;;2.60;;
63157;SDS011;49381;49.338;8.794;2023-01-05T13:21:04;8.30;;;2.28;;
63157;SDS011;49381;49.338;8.794;2023-01-05T13:23:16;19.42;;;2.90;;